Airfield :







YOU CAN JOIN US ON...

 
LOGIN :

Register | Disclaimer

   EN    FR    IT 

 









Legend :    VFR   Marginal VFR   IFR   Intensive IFR   Very Intensive IFR
Visi :
Ceiling :
>= 8 km
>= 3000ft
5 to 8 km
1000 to 3000 ft
1500m to 5 km
500 to 1000 ft
800 to 1500m
200 to 500 ft
< 800m
< 200 ft
Symbols :   Thunderstorms  Fog  Heavy snow  Heavy precipitations  Wind > 20 kt






- Airport Elevation : 72 ft
- IATA code : YDF


CYDF - Deer Lake

CURRENT METAR :
  • 122100Z 24009KT 15SM SCT065 BKN110 14/05 A2977 RMK SC3AC4 SLP082 DENSITY ALT 200FT

EXPIRED METARs :
  • 122000Z 22017G22KT 15SM SCT060 BKN090 15/05 A2976 RMK SC3AC4 SLP080 DENSITY ALT 400FT
  • 121900Z 21008KT 15SM FEW060 BKN100 17/00 A2975 RMK SC2AC5 SLP076 DENSITY ALT 600FT

TAF AMD TAF CYDF
Valid from the 12 at 20:00 until the 13 at 08:00 UTC


122018Z 1220/1308 22012G22KT P6SM FEW060 BKN100
TEMPO 1220/1307 P6SM -SHRA BKN060
BECMG 1304/1306 VRB03KT
FM130700 14005KT P6SM -SHRA OVC020
TEMPO 1307/1308 4SM -SHRA BR BKN008 OVC012 RMK NXT FCST BY 130200Z
CZQX FIR / North America



MET'MAP, your aeronautical weather chart ! - Copyright ORBIFLY December 2007 - Disclaimer

ORBIFLY MET'MAP TEAM :

Programming & Development : Alexandra Zaïnal
Concept & original design : Baudouin d'Aumeries
Assistance for programming : Marc-Olivier Méhu
Technical & hardware support : Manuel Goepfert

Contact : metmap@orbifly.com




SOURCES & CREDITS :

   NOAA